Time;durP1;ratioP1;P1;durP2;ratioP2;P2;SDS_P1;SDS_P2;PMS_P1;PMS_P2;Temp;Humidity;BMP_temperature;BMP_pressure;BME280_temperature;BME280_humidity;BME280_pressure;Samples;Min_cycle;Max_cycle;Signal;HPM_P1;HPM_P2
2022/08/26 00:01:54;;;;;;;22.80;9.75;;;;;;;21.81;73.27;100919.78;1659392;85;21122;-79
2022/08/26 00:04:40;;;;;;;;;;;;;;;21.78;73.23;100923.44;1659706;85;21657;-79
2022/08/26 00:07:24;;;;;;;16.35;10.00;;;;;;;21.75;73.47;100914.87;1614827;87;20221;-79
2022/08/26 00:10:10;;;;;;;27.05;11.08;;;;;;;21.71;73.33;100909.40;1643100;86;21144;-79
2022/08/26 00:12:56;;;;;;;23.52;10.78;;;;;;;21.71;73.41;100910.72;1673956;84;21080;-79
2022/08/26 00:15:41;;;;;;;16.45;10.08;;;;;;;21.68;73.44;100906.47;1689259;83;21068;-79
2022/08/26 00:18:26;;;;;;;16.85;10.13;;;;;;;21.66;73.54;100904.87;1697794;83;21061;-79
2022/08/26 00:21:11;;;;;;;17.17;10.93;;;;;;;21.66;73.54;100899.13;1649897;85;21625;-79
2022/08/26 00:23:56;;;;;;;18.67;10.08;;;;;;;21.66;73.57;100894.34;1665352;85;21128;-79
2022/08/26 00:26:41;;;;;;;21.27;10.30;;;;;;;21.65;73.64;100895.27;1664860;85;21078;-79
2022/08/26 00:29:27;;;;;;;16.02;10.35;;;;;;;21.63;73.68;100897.99;1650964;85;21383;-79
2022/08/26 00:32:13;;;;;;;16.62;9.43;;;;;;;21.61;73.72;100893.75;1663874;85;21555;-79
2022/08/26 00:34:58;;;;;;;20.82;10.53;;;;;;;21.59;73.74;100892.52;1661198;84;21127;-80
2022/08/26 00:37:43;;;;;;;15.48;9.70;;;;;;;21.56;73.80;100891.38;1653489;85;21119;-80
2022/08/26 00:40:35;;;;;;;18.23;10.18;;;;;;;21.58;73.86;100891.30;1667026;85;22601;-80
2022/08/26 00:43:23;;;;;;;22.62;11.43;;;;;;;21.56;73.93;100891.85;1663814;85;21610;-80
2022/08/26 00:46:13;;;;;;;20.90;11.73;;;;;;;21.56;73.97;100892.70;1656999;85;21602;-80
2022/08/26 00:49:04;;;;;;;20.95;12.00;;;;;;;21.55;73.98;100891.00;1658259;85;21030;-80
2022/08/26 00:51:54;;;;;;;19.87;11.33;;;;;;;21.55;74.08;100887.52;1694143;83;21064;-80
2022/08/26 00:54:45;;;;;;;20.88;11.83;;;;;;;21.56;74.15;100886.59;1655641;85;21524;-80
2022/08/26 00:57:32;;;;;;;17.05;12.15;;;;;;;21.60;74.18;100888.95;1664640;85;21095;-80
2022/08/26 01:00:25;;;;;;;24.45;11.38;;;;;;;21.62;74.24;100885.77;1661630;85;21054;-80
2022/08/26 01:03:11;;;;;;;30.50;12.50;;;;;;;21.64;74.29;100887.84;1660099;85;21094;-80
2022/08/26 01:06:01;;;;;;;19.80;11.83;;;;;;;21.66;74.37;100888.61;1654548;85;21126;-80
2022/08/26 01:08:46;;;;;;;25.68;13.83;;;;;;;21.70;74.43;100887.96;1662491;85;21035;-79
2022/08/26 01:11:32;;;;;;;27.65;14.00;;;;;;;21.73;74.48;100886.00;1658073;85;21491;-79
2022/08/26 01:14:20;;;;;;;33.20;15.98;;;;;;;21.76;74.60;100884.51;1660284;85;21072;-79
2022/08/26 01:17:07;;;;;;;34.25;17.35;;;;;;;21.80;74.67;100882.55;1673021;83;21001;-79
2022/08/26 01:20:00;;;;;;;46.33;17.62;;;;;;;21.84;74.71;100878.77;1657372;85;21128;-79
2022/08/26 01:22:58;;;;;;;34.85;18.48;;;;;;;21.90;74.77;100881.51;1650749;85;21118;-79
2022/08/26 01:25:50;;;;;;;35.40;18.45;;;;;;;21.91;74.84;100880.10;1656800;85;21073;-79
2022/08/26 01:28:38;;;;;;;39.53;17.82;;;;;;;21.95;74.89;100880.30;1645989;85;21049;-79
2022/08/26 01:31:27;;;;;;;33.45;19.98;;;;;;;21.96;74.98;100875.41;1677034;84;21488;-79
2022/08/26 01:34:29;;;;;;;34.33;19.23;;;;;;;21.99;75.02;100874.38;1688009;83;21103;-79
2022/08/26 01:37:19;;;;;;;36.98;19.82;;;;;;;22.03;75.09;100873.30;1647953;86;21080;-79
2022/08/26 01:40:07;;;;;;;37.75;19.92;;;;;;;22.05;75.16;100872.27;1680935;84;20912;-79
2022/08/26 01:42:53;;;;;;;43.05;19.67;;;;;;;22.04;75.24;100874.52;1657965;84;20936;-79
2022/08/26 01:45:40;;;;;;;32.38;18.92;;;;;;;22.05;75.30;100874.90;1684905;83;20944;-79
2022/08/26 01:48:30;;;;;;;37.95;20.62;;;;;;;22.07;75.37;100873.49;1679517;84;21059;-79
2022/08/26 01:51:16;;;;;;;36.77;19.65;;;;;;;22.08;75.40;100872.09;1676836;83;21099;-79
2022/08/26 01:54:01;;;;;;;;;;;;;;;22.09;75.52;100869.83;1682810;83;21119;-79
2022/08/26 01:56:48;;;;;;;41.75;19.90;;;;;;;22.10;75.89;100870.67;1684019;84;20241;-79
2022/08/26 01:59:33;;;;;;;;;;;;;;;22.09;75.60;100867.20;1689254;84;21051;-79
2022/08/26 02:02:18;;;;;;;33.45;18.62;;;;;;;22.10;75.97;100866.73;1675224;84;20332;-79
2022/08/26 02:05:06;;;;;;;35.83;20.20;;;;;;;22.10;75.67;100870.67;1672915;84;20964;-79
2022/08/26 02:07:52;;;;;;;32.08;19.45;;;;;;;22.10;75.74;100865.41;1684241;84;22184;-79
2022/08/26 02:10:37;;;;;;;29.43;20.27;;;;;;;22.10;75.80;100860.98;1681123;83;21044;-79
2022/08/26 02:13:26;;;;;;;46.10;20.75;;;;;;;22.12;75.84;100863.06;1688199;83;21162;-79
2022/08/26 02:16:17;;;;;;;31.80;20.82;;;;;;;22.13;75.87;100854.69;1691192;82;21055;-79
2022/08/26 02:19:04;;;;;;;34.88;20.25;;;;;;;22.12;75.94;100854.31;1682356;84;21591;-79
2022/08/26 02:21:52;;;;;;;29.98;20.55;;;;;;;22.12;75.98;100856.95;1686796;84;21065;-79
2022/08/26 02:24:57;;;;;;;28.83;20.60;;;;;;;22.12;76.04;100851.21;1679067;84;21051;-79
2022/08/26 02:27:42;;;;;;;33.20;21.17;;;;;;;22.13;76.09;100852.06;1684971;83;21047;-79
2022/08/26 02:30:31;;;;;;;30.45;18.70;;;;;;;22.16;76.12;100857.14;1675132;85;20999;-79
2022/08/26 02:33:16;;;;;;;31.52;20.75;;;;;;;22.15;76.17;100847.55;1665619;83;21092;-80
2022/08/26 02:36:01;;;;;;;39.25;20.52;;;;;;;22.17;76.19;100848.77;1673673;85;21818;-80
2022/08/26 02:38:46;;;;;;;40.23;21.35;;;;;;;22.16;76.25;100847.92;1672223;85;21099;-79
2022/08/26 02:41:32;;;;;;;31.25;18.77;;;;;;;22.15;76.29;100846.23;1678030;83;21104;-79
2022/08/26 02:44:18;;;;;;;26.75;19.07;;;;;;;22.15;76.34;100840.95;1670609;85;21684;-79
2022/08/26 02:47:03;;;;;;;27.13;19.50;;;;;;;22.15;76.37;100839.64;1633252;86;21121;-79
2022/08/26 02:49:48;;;;;;;32.13;20.73;;;;;;;22.14;76.40;100835.31;1642897;86;21062;-79
2022/08/26 02:52:34;;;;;;;35.48;19.65;;;;;;;22.13;76.44;100837.10;1625275;85;21088;-79
2022/08/26 02:55:19;;;;;;;29.67;18.05;;;;;;;22.11;76.42;100839.45;1662609;85;21092;-79
2022/08/26 02:58:04;;;;;;;29.75;19.62;;;;;;;22.06;76.57;100835.77;1673962;85;21096;-79
2022/08/26 03:00:50;;;;;;;27.37;19.57;;;;;;;22.05;76.60;100836.72;1670163;85;21635;-79
2022/08/26 03:03:35;;;;;;;37.03;21.30;;;;;;;22.06;76.65;100837.56;1672915;85;21374;-79
2022/08/26 03:06:21;;;;;;;28.80;20.12;;;;;;;22.05;76.72;100834.55;1668772;85;21499;-79
2022/08/26 03:09:08;;;;;;;31.60;19.70;;;;;;;22.06;76.73;100837.56;1672913;85;25318;-79
2022/08/26 03:11:54;;;;;;;26.23;20.10;;;;;;;22.04;76.78;100831.07;1672088;83;21107;-79
2022/08/26 03:14:39;;;;;;;36.53;20.88;;;;;;;22.04;76.82;100829.75;1675761;85;21067;-79
2022/08/26 03:17:24;;;;;;;36.45;20.72;;;;;;;22.05;76.88;100826.65;1669400;85;21121;-79
2022/08/26 03:20:10;;;;;;;35.88;21.20;;;;;;;22.05;76.92;100824.86;1672155;85;21064;-79
2022/08/26 03:22:55;;;;;;;37.63;21.30;;;;;;;22.04;76.96;100824.48;1675068;84;20980;-79
2022/08/26 03:25:41;;;;;;;33.55;21.23;;;;;;;22.02;77.04;100825.52;1684048;85;21092;-79
2022/08/26 03:28:26;;;;;;;30.72;21.60;;;;;;;22.03;77.04;100825.89;1671252;84;21099;-79
2022/08/26 03:31:10;;;;;;;26.25;20.80;;;;;;;22.03;77.10;100823.26;1678675;84;21579;-79
2022/08/26 03:33:56;;;;;;;26.73;20.80;;;;;;;22.01;77.15;100825.98;1674776;83;21067;-80
2022/08/26 03:36:42;;;;;;;26.63;21.53;;;;;;;22.02;77.19;100818.94;1683337;84;22191;-80
2022/08/26 03:39:27;;;;;;;37.30;22.13;;;;;;;22.03;77.21;100821.47;1679025;84;21088;-80
2022/08/26 03:42:13;;;;;;;31.77;20.97;;;;;;;22.03;77.24;100812.73;1684448;83;22214;-80
2022/08/26 03:44:58;;;;;;;29.93;21.90;;;;;;;22.03;77.30;100812.73;1687133;83;21123;-80
2022/08/26 03:47:44;;;;;;;30.10;20.85;;;;;;;22.03;77.32;100816.67;1672780;83;21102;-80
2022/08/26 03:50:29;;;;;;;26.77;21.60;;;;;;;22.04;77.33;100820.53;1645626;84;21051;-80
2022/08/26 03:53:14;;;;;;;30.52;21.27;;;;;;;22.04;77.39;100819.69;1683065;84;21491;-80
2022/08/26 03:56:00;;;;;;;37.13;21.87;;;;;;;22.01;77.42;100815.89;1681213;84;21059;-80
2022/08/26 03:58:46;;;;;;;42.23;20.85;;;;;;;21.98;77.46;100818.23;1676014;84;20987;-80
2022/08/26 04:01:32;;;;;;;27.67;20.37;;;;;;;21.99;77.53;100819.08;1685132;84;21499;-80
2022/08/26 04:04:17;;;;;;;27.02;20.05;;;;;;;21.98;77.55;100815.61;1682149;83;20972;-80
2022/08/26 04:07:02;;;;;;;28.02;20.52;;;;;;;21.98;77.57;100822.66;1683249;84;21076;-79
2022/08/26 04:09:47;;;;;;;30.32;19.67;;;;;;;21.98;77.63;100819.55;1684408;83;21112;-79
2022/08/26 04:12:32;;;;;;;29.20;19.00;;;;;;;21.97;77.64;100812.59;1681668;84;21100;-79
2022/08/26 04:15:20;;;;;;;28.90;20.32;;;;;;;21.95;77.69;100811.84;1682696;84;21067;-79
2022/08/26 04:18:05;;;;;;;22.27;19.20;;;;;;;21.95;77.75;100815.78;1682089;84;21059;-79
2022/08/26 04:20:50;;;;;;;24.37;18.27;;;;;;;21.94;77.76;100816.73;1686475;84;21028;-80
2022/08/26 04:23:35;;;;;;;23.70;19.35;;;;;;;21.91;77.81;100816.91;1673735;84;21052;-80
2022/08/26 04:26:22;;;;;;;28.38;20.02;;;;;;;21.90;77.81;100817.00;1688623;83;21512;-80
2022/08/26 04:29:12;;;;;;;25.95;18.80;;;;;;;21.87;77.87;100818.50;1672474;84;21039;-80
2022/08/26 04:31:57;;;;;;;21.75;18.73;;;;;;;21.87;77.90;100811.91;1673414;85;21052;-79
2022/08/26 04:34:42;;;;;;;23.18;18.77;;;;;;;21.87;77.96;100818.50;1662454;85;21528;-79
2022/08/26 04:37:27;;;;;;;21.17;18.95;;;;;;;21.86;77.97;100818.97;1676781;85;21452;-79
2022/08/26 04:40:12;;;;;;;30.95;19.15;;;;;;;21.86;78.00;100821.59;1682297;85;21131;-79
2022/08/26 04:42:57;;;;;;;24.35;18.85;;;;;;;21.87;78.01;100818.50;1667574;85;21554;-79
2022/08/26 04:45:42;;;;;;;25.45;18.42;;;;;;;21.87;78.05;100818.50;1674942;85;21036;-79
2022/08/26 04:48:29;;;;;;;20.43;18.10;;;;;;;21.87;78.05;100823.77;1669430;85;21591;-79
2022/08/26 04:51:14;;;;;;;;;;;;;;;21.87;78.12;100817.18;1670554;85;20996;-80
2022/08/26 04:53:59;;;;;;;17.75;15.85;;;;;;;21.84;78.30;100822.63;1679135;83;20634;-80
2022/08/26 04:56:48;;;;;;;22.48;18.48;;;;;;;21.83;78.13;100819.19;1675313;83;21051;-80
2022/08/26 04:59:33;;;;;;;21.27;17.05;;;;;;;21.82;78.13;100817.48;1679979;83;21060;-80
2022/08/26 05:02:18;;;;;;;22.90;18.27;;;;;;;21.84;78.19;100829.21;1677941;83;21130;-80
2022/08/26 05:05:05;;;;;;;23.12;17.20;;;;;;;21.84;78.17;100827.89;1677814;85;21628;-80
2022/08/26 05:07:51;;;;;;;23.85;17.73;;;;;;;21.83;78.23;100833.66;1669201;83;21060;-80
2022/08/26 05:10:42;;;;;;;20.35;18.23;;;;;;;21.85;78.25;100832.22;1682543;83;21044;-80
2022/08/26 05:13:27;;;;;;;19.37;16.77;;;;;;;21.86;78.29;100832.13;1685836;83;20956;-79
2022/08/26 05:16:13;;;;;;;20.35;18.15;;;;;;;;;;1669679;83;20941;-79
2022/08/26 05:18:58;;;;;;;27.27;19.25;;;;;;;21.91;78.31;100834.49;1674250;83;22141;-79
2022/08/26 05:21:43;;;;;;;19.82;17.15;;;;;;;21.90;78.28;100844.65;1636240;85;21629;-79
2022/08/26 05:24:29;;;;;;;21.42;17.82;;;;;;;21.87;78.35;100843.52;1636460;85;21085;-79
2022/08/26 05:27:14;;;;;;;20.85;18.55;;;;;;;21.87;78.41;100840.87;1645721;85;21049;-79
2022/08/26 05:30:01;;;;;;;26.33;19.30;;;;;;;21.89;78.43;100842.95;1651163;85;21008;-79
2022/08/26 05:32:48;;;;;;;22.62;19.55;;;;;;;21.90;78.45;100845.49;1651955;85;21679;-80
2022/08/26 05:35:34;;;;;;;21.90;18.65;;;;;;;21.91;78.48;100852.45;1653730;84;21077;-79
2022/08/26 05:38:21;;;;;;;24.90;19.17;;;;;;;21.94;78.50;100852.74;1656360;85;21120;-79
2022/08/26 05:41:27;;;;;;;19.23;17.23;;;;;;;21.97;78.47;100855.20;1649596;85;21825;-79
2022/08/26 05:44:16;;;;;;;20.82;16.67;;;;;;;21.98;78.52;100851.63;1650681;85;21664;-79
2022/08/26 05:47:00;;;;;;;19.15;16.95;;;;;;;;;;1642944;84;21635;-79
2022/08/26 05:49:45;;;;;;;19.48;17.37;;;;;;;22.01;78.53;100852.32;1666214;83;21092;-79
2022/08/26 05:52:32;;;;;;;21.40;17.67;;;;;;;21.85;78.88;100833.54;1654307;85;21060;-79
2022/08/26 05:55:19;;;;;;;23.22;18.25;;;;;;;21.85;78.88;100833.54;1646866;85;21396;-79
2022/08/26 05:58:04;;;;;;;20.80;18.60;;;;;;;22.00;78.65;100847.95;1657302;85;21063;-79
2022/08/26 06:00:59;;;;;;;24.18;18.37;;;;;;;22.06;78.62;100842.83;1659689;85;21105;-79
2022/08/26 06:03:48;;;;;;;21.97;17.48;;;;;;;22.09;78.63;100840.86;1653005;84;21070;-79
2022/08/26 06:06:35;;;;;;;20.57;17.73;;;;;;;22.20;78.69;100840.68;1656273;84;21548;-79
2022/08/26 06:09:20;;;;;;;19.85;16.48;;;;;;;;;;1649281;84;21153;-79
2022/08/26 06:12:05;;;;;;;21.97;16.77;;;;;;;22.34;78.61;100842.85;1658916;85;21130;-79
2022/08/26 06:14:50;;;;;;;19.10;17.07;;;;;;;22.38;78.58;100842.16;1479329;85;10000813;-79
2022/08/26 06:17:35;;;;;;;18.70;16.82;;;;;;;22.38;78.58;100840.84;1651869;84;21178;-79
2022/08/26 06:20:21;;;;;;;17.32;15.48;;;;;;;22.48;78.58;100847.72;1621923;86;21136;-79
2022/08/26 06:26:10;;;;;;;15.95;14.47;;;;;;;22.44;78.35;100848.38;1643349;85;21092;-79
2022/08/26 06:28:55;;;;;;;19.37;16.40;;;;;;;22.40;78.55;100852.14;1651581;84;21117;-79
2022/08/26 06:31:40;;;;;;;17.70;14.80;;;;;;;22.40;78.45;100846.87;1656432;84;21075;-79
2022/08/26 06:34:27;;;;;;;21.10;15.90;;;;;;;22.43;78.61;100842.73;1642559;84;21568;-79
2022/08/26 06:37:13;;;;;;;17.67;15.00;;;;;;;22.51;78.57;100844.42;1636435;85;21419;-79
2022/08/26 06:39:58;;;;;;;16.65;14.65;;;;;;;22.56;78.49;100846.30;1655481;84;20935;-80
2022/08/26 06:42:43;;;;;;;15.10;13.18;;;;;;;22.82;78.62;100839.91;1655432;84;20945;-80
2022/08/26 06:45:28;;;;;;;15.25;13.70;;;;;;;23.20;78.61;100844.86;1648672;85;20985;-80
2022/08/26 06:48:16;;;;;;;15.23;13.72;;;;;;;23.53;78.53;100838.30;1654913;84;20923;-80
2022/08/26 06:51:10;;;;;;;20.12;13.10;;;;;;;24.17;78.56;100828.19;1653917;85;20961;-80
2022/08/26 06:53:58;;;;;;;15.40;13.80;;;;;;;25.03;78.28;100834.85;1662350;84;20965;-80
2022/08/26 06:56:43;;;;;;;15.20;12.73;;;;;;;25.82;77.75;100828.92;1651835;85;21007;-80
2022/08/26 06:59:29;;;;;;;12.40;10.98;;;;;;;26.53;77.12;100831.73;1652956;85;21064;-80
2022/08/26 07:02:14;;;;;;;15.78;11.80;;;;;;;27.09;77.27;100829.48;1653620;85;21097;-80
2022/08/26 07:05:00;;;;;;;13.10;11.50;;;;;;;27.60;76.98;100830.48;1645378;85;21088;-80
2022/08/26 07:07:47;;;;;;;12.78;11.60;;;;;;;28.19;76.91;100827.19;1652490;84;21601;-80
2022/08/26 07:10:32;;;;;;;15.08;11.40;;;;;;;28.66;76.11;100825.70;1615893;84;21796;-80
2022/08/26 07:13:17;;;;;;;15.08;11.35;;;;;;;29.03;76.11;100827.77;1616234;86;21106;-80
2022/08/26 07:16:11;;;;;;;11.80;10.80;;;;;;;29.58;75.87;100829.41;1619022;86;21114;-80
2022/08/26 07:18:57;;;;;;;11.90;10.80;;;;;;;30.13;75.73;100830.91;1624146;86;21145;-75
2022/08/26 07:21:42;;;;;;;13.38;10.38;;;;;;;30.65;75.45;100833.93;1622497;86;21615;-74
2022/08/26 07:24:28;;;;;;;12.40;10.75;;;;;;;31.03;75.04;100838.17;1642155;84;168295;-74
2022/08/26 07:27:15;;;;;;;10.90;9.75;;;;;;;31.13;74.46;100834.47;1673342;84;21084;-81
2022/08/26 07:30:01;;;;;;;12.85;11.68;;;;;;;31.09;74.54;100833.06;1655144;84;21085;-80
2022/08/26 07:32:46;;;;;;;13.08;11.57;;;;;;;30.99;73.06;100830.11;1639521;85;21132;-80
2022/08/26 07:35:31;;;;;;;17.17;13.13;;;;;;;30.87;73.23;100831.66;1642593;85;21456;-80
2022/08/26 07:38:16;;;;;;;16.02;12.95;;;;;;;30.89;73.12;100834.18;1633565;85;21548;-80
2022/08/26 07:41:02;;;;;;;15.18;12.18;;;;;;;30.90;72.76;100830.02;1638998;85;22280;-80
2022/08/26 07:43:46;;;;;;;16.80;12.87;;;;;;;30.72;70.90;100823.81;1623087;85;21398;-81
2022/08/26 07:46:32;;;;;;;12.55;11.22;;;;;;;30.45;71.26;100826.48;1678932;83;22278;-80
2022/08/26 07:49:17;;;;;;;15.43;11.88;;;;;;;30.34;71.35;100826.17;1674686;83;21096;-80
2022/08/26 07:52:03;;;;;;;16.32;11.05;;;;;;;30.37;70.86;100825.88;1668753;83;21104;-80
2022/08/26 07:54:48;;;;;;;;;;;;;;;30.38;70.62;100830.72;1663954;83;21141;-80
2022/08/26 07:57:33;;;;;;;12.95;11.75;;;;;;;30.52;69.30;100835.08;1667471;83;20576;-80
2022/08/26 08:00:19;;;;;;;13.58;12.28;;;;;;;30.62;69.84;100831.06;1660160;84;22222;-80
2022/08/26 08:03:05;;;;;;;13.85;11.73;;;;;;;30.72;69.27;100832.31;1671629;83;21055;-80
2022/08/26 08:05:50;;;;;;;12.10;10.88;;;;;;;30.72;68.32;100830.48;1677483;83;21588;-80
2022/08/26 08:08:36;;;;;;;15.93;10.47;;;;;;;30.85;68.74;100836.80;1675966;83;21080;-80
2022/08/26 08:11:21;;;;;;;11.12;10.05;;;;;;;31.03;68.39;100836.83;1671043;83;21076;-80
2022/08/26 08:14:07;;;;;;;14.85;11.30;;;;;;;31.17;68.10;100826.50;1683305;83;21508;-80
2022/08/26 08:16:52;;;;;;;14.13;11.45;;;;;;;31.21;67.57;100827.00;1679226;83;21017;-80
2022/08/26 08:19:37;;;;;;;11.95;10.53;;;;;;;31.26;67.17;100837.57;1679916;83;21092;-79
2022/08/26 08:22:23;;;;;;;11.88;10.75;;;;;;;31.28;67.18;100826.73;1681779;83;21344;-79
2022/08/26 08:25:09;;;;;;;13.60;11.10;;;;;;;31.31;66.79;100826.92;1677507;83;21119;-79
2022/08/26 08:27:54;;;;;;;12.82;10.35;;;;;;;31.36;66.50;100822.80;1675001;83;21127;-79
2022/08/26 08:30:40;;;;;;;17.45;12.35;;;;;;;31.36;65.91;100824.13;1668770;83;21024;-79
2022/08/26 08:33:24;;;;;;;;;;;;;;;31.44;65.59;100822.87;1670206;83;21527;-80
2022/08/26 08:36:09;;;;;;;12.70;11.40;;;;;;;31.36;61.67;100818.79;1685637;83;20184;-80
2022/08/26 08:38:55;;;;;;;16.37;11.80;;;;;;;31.28;65.05;100816.05;1688622;83;21058;-79
2022/08/26 08:42:19;;;;;;;12.10;10.33;;;;;;;31.33;64.98;100811.58;1682713;83;21039;-78
2022/08/26 08:45:10;;;;;;;14.20;9.88;;;;;;;31.09;64.84;100802.84;1675709;83;21560;-77
2022/08/26 08:48:00;;;;;;;11.60;10.40;;;;;;;30.71;64.44;100800.77;1680842;83;21050;-77
2022/08/26 08:50:55;;;;;;;16.93;11.18;;;;;;;30.37;64.14;100801.86;1671524;83;21051;-78
2022/08/26 08:53:44;;;;;;;13.62;9.53;;;;;;;30.09;63.59;100796.18;1680387;83;21638;-78
2022/08/26 08:56:43;;;;;;;13.55;10.40;;;;;;;29.62;63.32;100800.16;1676285;83;21098;-76
2022/08/26 08:59:35;;;;;;;13.22;10.20;;;;;;;29.36;63.30;100793.69;1680605;83;21654;-75
2022/08/26 09:02:42;;;;;;;15.38;11.18;;;;;;;29.15;62.96;100797.83;1683501;83;21075;-76
2022/08/26 09:05:39;;;;;;;10.00;9.00;;;;;;;28.92;62.41;100791.46;1680330;83;21119;-76
2022/08/26 09:08:28;;;;;;;12.88;10.45;;;;;;;28.72;62.53;100791.04;1686729;83;21051;-76
2022/08/26 09:11:15;;;;;;;15.93;10.35;;;;;;;28.59;62.35;100791.81;1679297;83;21015;-75
2022/08/26 09:14:00;;;;;;;14.33;10.58;;;;;;;28.47;62.19;100791.08;1680217;83;21321;-76
2022/08/26 09:17:27;;;;;;;15.72;9.75;;;;;;;28.34;62.10;100785.98;1690129;83;21149;-76
2022/08/26 09:20:36;;;;;;;14.40;10.48;;;;;;;28.28;62.01;100783.87;1686133;83;21075;-76
2022/08/26 09:23:21;;;;;;;15.08;9.93;;;;;;;28.11;61.73;100783.13;1681824;83;21115;-75
2022/08/26 09:26:17;;;;;;;11.57;9.90;;;;;;;28.01;61.74;100780.45;1680296;83;21059;-75
2022/08/26 09:29:10;;;;;;;20.05;10.43;;;;;;;27.97;61.58;100783.02;1675804;83;21047;-75
2022/08/26 09:32:20;;;;;;;16.10;9.80;;;;;;;27.92;61.56;100777.75;1687973;82;21073;-75
2022/08/26 09:35:11;;;;;;;12.10;9.05;;;;;;;27.84;61.42;100778.41;1697094;82;21081;-76
2022/08/26 09:37:57;;;;;;;11.75;10.18;;;;;;;27.83;61.34;100779.86;1695246;82;21098;-76
2022/08/26 09:40:47;;;;;;;14.20;9.35;;;;;;;27.80;61.35;100777.47;1694925;82;21580;-76
2022/08/26 09:43:32;;;;;;;14.70;10.05;;;;;;;27.74;61.14;100771.34;1699568;82;22095;-76
2022/08/26 09:46:22;;;;;;;13.75;10.08;;;;;;;27.65;60.85;100765.84;1709435;82;21140;-76
2022/08/26 09:49:27;;;;;;;14.98;9.33;;;;;;;27.61;60.97;100763.09;1694877;82;21065;-76
2022/08/26 09:52:26;;;;;;;10.63;9.58;;;;;;;27.59;60.87;100765.03;1702359;82;21001;-75
2022/08/26 09:55:16;;;;;;;9.93;8.88;;;;;;;27.56;60.67;100753.80;1711237;82;21081;-75
2022/08/26 09:58:01;;;;;;;18.12;9.50;;;;;;;27.56;60.66;100758.63;1690725;82;21123;-75
2022/08/26 10:01:00;;;;;;;10.75;8.23;;;;;;;27.61;60.82;100758.27;1700464;82;21120;-77
2022/08/26 10:03:45;;;;;;;13.55;9.38;;;;;;;27.62;60.61;100750.65;1697769;82;21124;-79
2022/08/26 10:06:34;;;;;;;12.07;8.98;;;;;;;27.66;60.69;100744.94;1690443;82;21164;-79
2022/08/26 10:09:19;;;;;;;14.25;7.87;;;;;;;27.73;60.52;100747.08;1663097;84;21070;-79
2022/08/26 10:12:09;;;;;;;14.93;8.60;;;;;;;27.72;60.45;100743.58;1657984;84;21019;-79
2022/08/26 10:14:59;;;;;;;9.50;8.33;;;;;;;27.79;60.51;100743.89;1632803;85;21143;-79
2022/08/26 10:18:20;;;;;;;12.15;7.78;;;;;;;27.82;60.05;100743.62;1658490;84;22332;-79
2022/08/26 10:21:25;;;;;;;11.90;7.78;;;;;;;27.85;60.19;100736.72;1665204;84;21063;-79
2022/08/26 10:24:14;;;;;;;13.30;7.55;;;;;;;27.88;60.07;100728.48;1658107;84;21134;-79
2022/08/26 10:27:06;;;;;;;10.98;6.75;;;;;;;27.92;60.08;100723.26;1659798;84;21185;-79
2022/08/26 10:29:56;;;;;;;15.40;6.53;;;;;;;27.93;59.93;100721.80;1655579;84;21131;-79
2022/08/26 10:33:04;;;;;;;10.23;6.90;;;;;;;27.96;59.75;100720.20;1664731;83;21811;-79
2022/08/26 10:36:00;;;;;;;10.50;6.60;;;;;;;27.99;59.56;100720.42;1699409;82;21016;-80
2022/08/26 10:38:45;;;;;;;14.87;6.97;;;;;;;28.00;59.32;100714.97;1659533;84;21105;-80
2022/08/26 10:41:35;;;;;;;11.40;7.00;;;;;;;28.00;59.04;100716.30;1699505;82;21036;-80
2022/08/26 10:44:22;;;;;;;14.47;6.55;;;;;;;28.03;59.13;100707.70;1657161;84;21071;-80
2022/08/26 10:47:17;;;;;;;11.05;6.17;;;;;;;28.05;58.80;100706.59;1699856;82;20984;-80
2022/08/26 10:50:05;;;;;;;12.50;5.95;;;;;;;28.10;58.64;100708.81;1664360;84;21002;-80
2022/08/26 10:53:25;;;;;;;12.98;6.00;;;;;;;28.14;58.49;100703.58;1677168;83;21048;-80
2022/08/26 10:56:23;;;;;;;9.45;5.92;;;;;;;28.17;58.48;100710.80;1685005;82;21125;-80
2022/08/26 10:59:52;;;;;;;13.25;5.40;;;;;;;28.24;58.04;100705.33;1695617;82;20997;-80
2022/08/26 11:02:45;;;;;;;7.80;5.30;;;;;;;28.31;58.15;100706.95;1658729;84;21062;-80
2022/08/26 11:05:30;;;;;;;11.03;5.30;;;;;;;28.35;57.83;100700.39;1665599;84;21164;-80
2022/08/26 11:08:23;;;;;;;7.95;4.60;;;;;;;28.42;57.66;100703.34;1671454;84;21059;-80
2022/08/26 11:11:08;;;;;;;9.55;4.83;;;;;;;28.50;57.60;100700.34;1660597;84;21043;-80
2022/08/26 11:14:04;;;;;;;6.87;5.10;;;;;;;28.55;57.31;100687.96;1657131;85;21130;-80
2022/08/26 11:16:53;;;;;;;13.30;4.22;;;;;;;28.58;57.13;100686.35;1659799;84;21007;-80
2022/08/26 11:19:56;;;;;;;7.65;4.17;;;;;;;28.62;56.57;100688.56;1666726;84;21655;-80
2022/08/26 11:22:40;;;;;;;12.60;4.33;;;;;;;28.64;56.77;100679.12;1670530;84;21094;-80
2022/08/26 11:25:26;;;;;;;8.93;4.15;;;;;;;28.65;56.62;100674.98;1645771;85;21161;-80
2022/08/26 11:28:16;;;;;;;7.77;3.83;;;;;;;28.68;56.46;100668.05;1657072;84;21059;-80
2022/08/26 11:31:02;;;;;;;10.30;3.47;;;;;;;28.74;56.41;100673.31;1696483;82;21116;-80
2022/08/26 11:33:58;;;;;;;8.78;3.27;;;;;;;28.77;56.13;100669.04;1688518;83;20922;-80
2022/08/26 11:36:48;;;;;;;6.92;3.58;;;;;;;28.80;55.69;100670.09;1688310;83;21611;-80
2022/08/26 11:39:48;;;;;;;14.58;3.62;;;;;;;28.82;55.38;100669.98;1683067;83;21148;-80
2022/08/26 11:42:40;;;;;;;7.58;2.80;;;;;;;28.82;55.16;100658.00;1651665;84;21117;-80
2022/08/26 11:45:39;;;;;;;10.70;3.60;;;;;;;28.82;54.99;100658.00;1645410;85;21183;-79
2022/08/26 11:48:35;;;;;;;10.85;2.98;;;;;;;28.85;54.79;100657.72;1676516;83;21714;-73
2022/08/26 11:51:24;;;;;;;7.00;2.33;;;;;;;28.87;54.55;100652.61;1678176;83;21406;-79
2022/08/26 11:54:20;;;;;;;6.97;2.72;;;;;;;28.92;54.20;100650.36;1681295;83;21135;-79
2022/08/26 11:57:08;;;;;;;9.23;2.87;;;;;;;28.95;54.05;100644.75;1680984;83;21126;-79
2022/08/26 11:59:54;;;;;;;5.05;3.27;;;;;;;28.98;53.56;100647.63;1655649;84;21087;-73
2022/08/26 12:02:40;;;;;;;627.67;134.90;;;;;;;29.03;51.71;100642.71;1678561;82;20922;-79
2022/08/26 12:05:27;;;;;;;;;;;;;;;29.06;53.09;100637.10;1683195;83;22210;-79
2022/08/26 12:08:17;;;;;;;18.48;6.65;;;;;;;29.05;52.10;100638.08;1676944;83;20145;-79
2022/08/26 12:11:09;;;;;;;15.78;6.00;;;;;;;29.09;52.57;100632.83;1680320;83;21383;-79
2022/08/26 12:14:05;;;;;;;18.77;4.85;;;;;;;29.13;52.51;100628.02;1687508;83;20921;-79
2022/08/26 12:16:52;;;;;;;209.50;45.55;;;;;;;29.17;52.43;100627.59;1679438;83;21480;-79
2022/08/26 12:19:38;;;;;;;40.10;11.97;;;;;;;29.22;52.26;100622.67;1685949;82;20929;-79
2022/08/26 12:22:34;;;;;;;45.12;12.65;;;;;;;29.22;52.34;100617.34;1682627;83;20932;-79
2022/08/26 12:25:23;;;;;;;45.83;12.33;;;;;;;29.24;52.11;100610.54;1681016;83;20928;-79
2022/08/26 12:28:10;;;;;;;11.90;3.45;;;;;;;29.26;51.95;100610.74;1685020;83;20960;-79
2022/08/26 12:30:59;;;;;;;;;;;;;;;29.31;51.84;100600.98;1684519;83;20937;-78
2022/08/26 12:33:44;;;;;;;56.88;14.40;;;;;;;29.32;51.12;100594.18;1687806;82;20105;-80
2022/08/26 12:36:34;;;;;;;16.60;4.20;;;;;;;29.34;51.24;100594.03;1682327;82;20945;-80
2022/08/26 12:39:35;;;;;;;9.28;3.00;;;;;;;29.38;51.25;100592.76;1678415;83;21127;-80
2022/08/26 12:42:41;;;;;;;37.40;8.55;;;;;;;29.39;50.93;100591.77;1676638;83;21088;-73
2022/08/26 12:45:43;;;;;;;11.80;4.78;;;;;;;29.42;50.84;100585.34;1649741;83;21158;-79
2022/08/26 12:48:35;;;;;;;81.82;17.65;;;;;;;29.43;50.77;100589.69;1660076;83;21127;-79
2022/08/26 12:51:25;;;;;;;20.92;6.08;;;;;;;29.43;50.57;100585.20;1679160;83;21139;-79
2022/08/26 12:54:14;;;;;;;12.80;4.17;;;;;;;29.43;50.20;100574.55;1663169;84;21115;-79
2022/08/26 12:57:10;;;;;;;52.27;12.13;;;;;;;29.44;50.15;100570.89;1678065;83;21056;-79